createdAt,value
2022-12-16T00:02:02.675Z,-7.30
2022-12-16T00:04:31.482Z,-7.30
2022-12-16T00:07:00.360Z,-7.20
2022-12-16T00:09:32.947Z,-7.20
2022-12-16T00:12:01.659Z,-7.20
2022-12-16T00:14:34.076Z,-7.20
2022-12-16T00:17:04.064Z,-7.10
2022-12-16T00:19:32.938Z,-7.20
2022-12-16T00:22:02.856Z,-7.10
2022-12-16T00:24:31.371Z,-7.10
2022-12-16T00:27:00.051Z,-7.10
2022-12-16T00:29:32.872Z,-7.10
2022-12-16T00:32:04.652Z,-7.10
2022-12-16T00:34:33.494Z,-7.10
2022-12-16T00:37:07.203Z,-7.00
2022-12-16T00:39:35.911Z,-7.00
2022-12-16T00:42:04.562Z,-6.90
2022-12-16T00:44:36.729Z,-7.00
2022-12-16T00:47:05.427Z,-7.00
2022-12-16T00:49:37.122Z,-7.00
2022-12-16T00:52:10.042Z,-7.00
2022-12-16T00:54:38.751Z,-7.10
2022-12-16T00:57:07.431Z,-7.10
2022-12-16T00:59:38.234Z,-7.10
2022-12-16T01:02:11.146Z,-7.10
2022-12-16T01:04:42.821Z,-7.10
2022-12-16T01:07:14.323Z,-7.10
2022-12-16T01:09:45.223Z,-7.20
2022-12-16T01:12:16.278Z,-7.10
2022-12-16T01:14:48.598Z,-7.10
2022-12-16T01:17:17.446Z,-7.10
2022-12-16T01:19:46.241Z,-7.10
2022-12-16T01:22:15.359Z,-7.10
2022-12-16T01:24:45.807Z,-7.00
2022-12-16T01:27:15.654Z,-7.10
2022-12-16T01:29:51.890Z,-7.10
2022-12-16T01:32:21.373Z,-7.10
2022-12-16T01:34:55.224Z,-7.10
2022-12-16T01:37:24.856Z,-7.20
2022-12-16T01:39:59.309Z,-7.10
2022-12-16T01:42:31.417Z,-7.20
2022-12-16T01:45:35.360Z,-7.20
2022-12-16T01:48:15.188Z,-7.20
2022-12-16T01:50:47.235Z,-7.20
2022-12-16T01:53:16.259Z,-7.20
2022-12-16T01:55:49.996Z,-7.20
2022-12-16T01:58:22.546Z,-7.20
2022-12-16T02:00:54.940Z,-7.20
2022-12-16T02:03:24.295Z,-7.20
2022-12-16T02:05:53.737Z,-7.20
2022-12-16T02:08:22.907Z,-7.20
2022-12-16T02:11:12.301Z,-7.20
2022-12-16T02:14:03.602Z,-7.20
2022-12-16T02:16:43.296Z,-7.30
2022-12-16T02:19:33.344Z,-7.30
2022-12-16T02:22:15.964Z,-7.30
2022-12-16T02:25:23.951Z,-7.30
2022-12-16T02:28:12.355Z,-7.20
2022-12-16T02:31:06.621Z,-7.30
2022-12-16T02:33:56.946Z,-7.30
2022-12-16T02:36:42.060Z,-7.30
2022-12-16T02:39:16.625Z,-7.30
2022-12-16T02:41:49.222Z,-7.40
2022-12-16T02:44:18.861Z,-7.40
2022-12-16T02:46:56.245Z,-7.40
2022-12-16T02:49:50.868Z,-7.50
2022-12-16T02:52:23.090Z,-7.50
2022-12-16T02:54:55.588Z,-7.50
2022-12-16T02:57:56.211Z,-7.50
2022-12-16T03:00:29.656Z,-7.50
2022-12-16T03:03:08.860Z,-7.60
2022-12-16T03:05:42.159Z,-7.60
2022-12-16T03:08:15.001Z,-7.60
2022-12-16T03:10:46.717Z,-7.60
2022-12-16T03:13:18.741Z,-7.60
2022-12-16T03:15:51.206Z,-7.60
2022-12-16T03:18:22.650Z,-7.60
2022-12-16T03:20:56.555Z,-7.60
2022-12-16T03:23:29.709Z,-7.60
2022-12-16T03:26:04.862Z,-7.60
2022-12-16T03:28:44.709Z,-7.60
2022-12-16T03:31:25.485Z,-7.60
2022-12-16T03:34:08.554Z,-7.70
2022-12-16T03:36:38.890Z,-7.70
2022-12-16T03:39:13.991Z,-7.80
2022-12-16T03:41:48.129Z,-7.70
2022-12-16T03:44:16.920Z,-7.80
2022-12-16T03:46:45.675Z,-7.80
2022-12-16T03:49:15.886Z,-7.80
2022-12-16T03:51:47.110Z,-7.90
2022-12-16T03:54:15.738Z,-7.90
2022-12-16T03:56:44.368Z,-7.90
2022-12-16T03:59:13.074Z,-7.90
2022-12-16T04:01:43.541Z,-7.90
2022-12-16T04:04:12.221Z,-7.90
2022-12-16T04:06:42.341Z,-7.90
2022-12-16T04:09:13.686Z,-7.90
2022-12-16T04:12:05.260Z,-7.90
2022-12-16T04:14:53.666Z,-7.90
2022-12-16T04:17:44.306Z,-7.80
2022-12-16T04:20:47.399Z,-7.80
2022-12-16T04:23:35.198Z,-7.80
2022-12-16T04:26:04.179Z,-7.80
2022-12-16T04:28:32.934Z,-7.70
2022-12-16T04:31:02.833Z,-7.70
2022-12-16T04:33:49.126Z,-7.60
2022-12-16T04:36:34.984Z,-7.60
2022-12-16T04:39:22.617Z,-7.50
2022-12-16T04:42:11.657Z,-7.50
2022-12-16T04:44:58.123Z,-7.50
2022-12-16T04:47:44.360Z,-7.50
2022-12-16T04:50:33.892Z,-7.40
2022-12-16T04:53:20.262Z,-7.40
2022-12-16T04:56:08.947Z,-7.50
2022-12-16T04:58:54.804Z,-7.50
2022-12-16T05:01:41.094Z,-7.40
2022-12-16T05:04:27.099Z,-7.30
2022-12-16T05:07:13.213Z,-7.30
2022-12-16T05:09:59.172Z,-7.30
2022-12-16T05:12:46.458Z,-7.20
2022-12-16T05:15:32.576Z,-7.20
2022-12-16T05:18:25.882Z,-7.20
2022-12-16T05:21:11.818Z,-7.20
2022-12-16T05:23:58.025Z,-7.10
2022-12-16T05:26:46.948Z,-7.10
2022-12-16T05:29:37.683Z,-7.10
2022-12-16T05:32:24.188Z,-7.10
2022-12-16T05:35:09.552Z,-7.00
2022-12-16T05:37:55.912Z,-7.00
2022-12-16T05:40:42.194Z,-6.90
2022-12-16T05:43:36.752Z,-7.00
2022-12-16T05:46:24.634Z,-7.00
2022-12-16T05:49:10.623Z,-7.00
2022-12-16T05:51:56.499Z,-6.90
2022-12-16T05:54:42.360Z,-7.00
2022-12-16T05:57:28.586Z,-6.90
2022-12-16T06:00:14.690Z,-6.80
2022-12-16T06:03:02.342Z,-6.80
2022-12-16T06:05:48.740Z,-6.80
2022-12-16T06:08:34.458Z,-6.90
2022-12-16T06:11:28.861Z,-6.90
2022-12-16T06:14:15.199Z,-6.90
2022-12-16T06:17:01.225Z,-6.80
2022-12-16T06:19:48.432Z,-6.80
2022-12-16T06:22:34.651Z,-6.70
2022-12-16T06:25:20.666Z,-6.70
2022-12-16T06:28:10.088Z,-6.70
2022-12-16T06:30:56.783Z,-6.70
2022-12-16T06:33:43.081Z,-6.70
2022-12-16T06:36:30.821Z,-6.70
2022-12-16T06:39:17.089Z,-6.60
2022-12-16T06:42:03.211Z,-6.60
2022-12-16T06:44:49.420Z,-6.60
2022-12-16T06:47:35.626Z,-6.60
2022-12-16T06:50:21.578Z,-6.50
2022-12-16T06:53:09.292Z,-6.50
2022-12-16T06:55:55.173Z,-6.50
2022-12-16T06:58:41.231Z,-6.50
2022-12-16T07:01:27.325Z,-6.50
2022-12-16T07:04:13.218Z,-6.50
2022-12-16T07:06:59.248Z,-6.40
2022-12-16T07:09:46.276Z,-6.40
2022-12-16T07:12:32.408Z,-6.30
2022-12-16T07:15:29.928Z,-6.30
2022-12-16T07:18:15.993Z,-6.30
2022-12-16T07:21:02.090Z,-6.30
2022-12-16T07:23:48.304Z,-6.20
2022-12-16T07:26:35.834Z,-6.10
2022-12-16T07:29:24.303Z,-6.10
2022-12-16T07:32:10.552Z,-6.00
2022-12-16T07:34:56.711Z,-6.00
2022-12-16T07:37:43.071Z,-6.00
2022-12-16T07:40:29.594Z,-6.00
2022-12-16T07:43:16.844Z,-6.00
2022-12-16T07:46:02.767Z,-6.00
2022-12-16T07:48:49.116Z,-5.90
2022-12-16T07:51:35.157Z,-5.90
2022-12-16T07:54:21.047Z,-5.90
2022-12-16T07:57:06.743Z,-5.90
2022-12-16T07:59:53.930Z,-5.90
2022-12-16T08:02:40.034Z,-5.90
2022-12-16T08:05:26.598Z,-5.80
2022-12-16T08:08:14.513Z,-5.80
2022-12-16T08:11:00.543Z,-5.80
2022-12-16T08:13:46.821Z,-5.80
2022-12-16T08:16:34.395Z,-5.70
2022-12-16T08:19:20.506Z,-5.70
2022-12-16T08:22:06.428Z,-5.60
2022-12-16T08:24:53.802Z,-5.50
2022-12-16T08:27:42.136Z,-5.60
2022-12-16T08:30:29.341Z,-5.50
2022-12-16T08:33:19.730Z,-5.40
2022-12-16T08:36:16.998Z,-5.50
2022-12-16T08:39:03.289Z,-5.40
2022-12-16T08:41:49.319Z,-5.40
2022-12-16T08:44:37.381Z,-5.40
2022-12-16T08:47:25.873Z,-5.40
2022-12-16T08:50:13.369Z,-5.40
2022-12-16T08:52:59.019Z,-5.30
2022-12-16T08:55:44.962Z,-5.30
2022-12-16T08:58:31.147Z,-5.30
2022-12-16T09:01:17.341Z,-5.30
2022-12-16T09:04:03.384Z,-5.30
2022-12-16T09:06:50.915Z,-5.20
2022-12-16T09:09:37.161Z,-5.20
2022-12-16T09:12:23.523Z,-5.30
2022-12-16T09:15:09.509Z,-5.20
2022-12-16T09:17:55.434Z,-5.20
2022-12-16T09:20:42.252Z,-5.20
2022-12-16T09:23:29.850Z,-5.20
2022-12-16T09:26:16.130Z,-5.20
2022-12-16T09:29:02.268Z,-5.20
2022-12-16T09:31:48.120Z,-5.10
2022-12-16T09:34:34.296Z,-5.10
2022-12-16T09:37:20.392Z,-5.00
2022-12-16T09:40:07.999Z,-5.00
2022-12-16T09:43:17.580Z,-4.90
2022-12-16T09:46:13.935Z,-4.90
2022-12-16T09:49:08.829Z,-4.90
2022-12-16T09:51:57.098Z,-4.90
2022-12-16T09:54:45.955Z,-4.90
2022-12-16T09:57:34.332Z,-4.90
2022-12-16T10:00:23.579Z,-4.90
2022-12-16T10:03:10.251Z,-4.90
2022-12-16T10:06:08.722Z,-4.80
2022-12-16T10:09:00.157Z,-4.80
2022-12-16T10:11:58.181Z,-4.80
2022-12-16T10:15:04.755Z,-4.80
2022-12-16T10:17:50.684Z,-4.70
2022-12-16T10:20:56.258Z,-4.80
2022-12-16T10:23:47.378Z,-4.80
2022-12-16T10:26:39.735Z,-4.60
2022-12-16T10:29:34.651Z,-4.60
2022-12-16T10:32:33.052Z,-4.60
2022-12-16T10:35:19.874Z,-4.60
2022-12-16T10:38:06.472Z,-4.60
2022-12-16T10:40:54.322Z,-4.60
2022-12-16T10:43:47.678Z,-4.60
2022-12-16T10:46:39.225Z,-4.50
2022-12-16T10:49:31.453Z,-4.50
2022-12-16T10:52:17.527Z,-4.50
2022-12-16T10:55:09.906Z,-4.50
2022-12-16T10:58:06.698Z,-4.50
2022-12-16T11:01:02.540Z,-4.50
2022-12-16T11:03:50.993Z,-4.50
2022-12-16T11:06:44.071Z,-4.50
2022-12-16T11:09:51.090Z,-4.50
2022-12-16T11:12:43.226Z,-4.50
2022-12-16T11:15:42.175Z,-4.50
2022-12-16T11:18:34.198Z,-4.50
2022-12-16T11:21:29.111Z,-4.40
2022-12-16T11:24:32.630Z,-4.40
2022-12-16T11:27:20.541Z,-4.40
2022-12-16T11:30:14.297Z,-4.40
2022-12-16T11:33:05.135Z,-4.40
2022-12-16T11:35:53.846Z,-4.40
2022-12-16T11:38:44.840Z,-4.40
2022-12-16T11:41:42.355Z,-4.40
2022-12-16T11:44:37.844Z,-4.30
2022-12-16T11:47:35.334Z,-4.30
2022-12-16T11:50:30.000Z,-4.30
2022-12-16T11:53:18.232Z,-4.30
2022-12-16T11:56:15.804Z,-4.30
2022-12-16T11:59:07.504Z,-4.40
2022-12-16T12:01:58.241Z,-4.40
2022-12-16T12:04:44.301Z,-4.40
2022-12-16T12:07:45.469Z,-4.40
2022-12-16T12:11:08.995Z,-4.40
2022-12-16T12:14:13.906Z,-4.40
2022-12-16T12:17:13.484Z,-4.40
2022-12-16T12:20:11.048Z,-4.40
2022-12-16T12:22:58.313Z,-4.40
2022-12-16T12:25:52.406Z,-4.40
2022-12-16T12:28:49.814Z,-4.50
2022-12-16T12:31:49.621Z,-4.40
2022-12-16T12:34:44.165Z,-4.50
2022-12-16T12:37:42.381Z,-4.40
2022-12-16T12:40:41.036Z,-4.40
2022-12-16T12:43:36.542Z,-4.40
2022-12-16T12:46:33.595Z,-4.50
2022-12-16T12:49:26.653Z,-4.50
2022-12-16T12:52:22.814Z,-4.40
2022-12-16T12:55:13.366Z,-4.40
2022-12-16T12:58:02.425Z,-4.40
2022-12-16T13:00:53.098Z,-4.50
2022-12-16T13:03:49.280Z,-4.50
2022-12-16T13:06:37.628Z,-4.50
2022-12-16T13:09:42.894Z,-4.50
2022-12-16T13:12:46.979Z,-4.50
2022-12-16T13:15:53.038Z,-4.50
2022-12-16T13:18:44.361Z,-4.50
2022-12-16T13:22:08.935Z,-4.50
2022-12-16T13:25:03.147Z,-4.50
2022-12-16T13:28:05.574Z,-4.50
2022-12-16T13:30:53.520Z,-4.50
2022-12-16T13:33:56.045Z,-4.50
2022-12-16T13:36:53.440Z,-4.50
2022-12-16T13:39:43.933Z,-4.50
2022-12-16T13:43:06.374Z,-4.50
2022-12-16T13:45:55.680Z,-4.50
2022-12-16T13:48:54.028Z,-4.50
2022-12-16T13:52:19.540Z,-4.50
2022-12-16T13:55:24.398Z,-4.50
2022-12-16T13:58:20.775Z,-4.50
2022-12-16T14:01:19.830Z,-4.60
2022-12-16T14:04:10.156Z,-4.60
2022-12-16T14:06:58.088Z,-4.60
2022-12-16T14:10:07.279Z,-4.70
2022-12-16T14:13:18.413Z,-4.60
2022-12-16T14:16:13.289Z,-4.70
2022-12-16T14:19:11.553Z,-4.70
2022-12-16T14:22:08.854Z,-4.70
2022-12-16T14:24:57.550Z,-4.70
2022-12-16T14:27:44.382Z,-4.70
2022-12-16T14:30:39.035Z,-4.70
2022-12-16T14:33:44.200Z,-4.70
2022-12-16T14:36:45.092Z,-4.60
2022-12-16T14:39:38.774Z,-4.60
2022-12-16T14:42:46.767Z,-4.70
2022-12-16T14:45:48.009Z,-4.70
2022-12-16T14:48:47.627Z,-4.70
2022-12-16T14:52:03.804Z,-4.70
2022-12-16T14:54:55.475Z,-4.70
2022-12-16T14:57:43.095Z,-4.70
2022-12-16T15:00:35.105Z,-4.70
2022-12-16T15:03:46.230Z,-4.70
2022-12-16T15:06:38.928Z,-4.70
2022-12-16T15:09:35.567Z,-4.70
2022-12-16T15:12:23.045Z,-4.70
2022-12-16T15:15:16.168Z,-4.70
2022-12-16T15:18:09.950Z,-4.70
2022-12-16T15:21:08.732Z,-4.70
2022-12-16T15:24:01.080Z,-4.70
2022-12-16T15:26:50.681Z,-4.80
2022-12-16T15:29:48.948Z,-4.80
2022-12-16T15:33:00.415Z,-4.80
2022-12-16T15:35:48.774Z,-4.80
2022-12-16T15:38:54.936Z,-4.80
2022-12-16T15:41:49.257Z,-4.80
2022-12-16T15:44:37.954Z,-4.80
2022-12-16T15:47:44.229Z,-4.80
2022-12-16T15:50:35.386Z,-4.80
2022-12-16T15:53:34.779Z,-4.80
2022-12-16T15:56:24.156Z,-4.80
2022-12-16T15:59:33.402Z,-4.80
2022-12-16T16:02:26.682Z,-4.80
2022-12-16T16:05:13.449Z,-4.80
2022-12-16T16:08:03.870Z,-4.80
2022-12-16T16:10:52.162Z,-4.80
2022-12-16T16:13:39.884Z,-4.70
2022-12-16T16:16:29.349Z,-4.80
2022-12-16T16:19:16.834Z,-4.80
2022-12-16T16:22:02.939Z,-4.80
2022-12-16T16:24:49.446Z,-4.90
2022-12-16T16:27:37.177Z,-4.80
2022-12-16T16:30:27.884Z,-4.80
2022-12-16T16:33:16.913Z,-4.80
2022-12-16T16:36:02.762Z,-4.80
2022-12-16T16:38:47.823Z,-4.80
2022-12-16T16:41:34.799Z,-4.90
2022-12-16T16:44:21.595Z,-4.80
2022-12-16T16:47:09.158Z,-4.90
2022-12-16T16:49:59.985Z,-4.80
2022-12-16T16:52:46.935Z,-4.80
2022-12-16T16:55:34.477Z,-4.80
2022-12-16T16:58:25.911Z,-4.80
2022-12-16T17:01:11.828Z,-4.80
2022-12-16T17:03:59.735Z,-4.80
2022-12-16T17:06:46.000Z,-4.80
2022-12-16T17:09:32.130Z,-4.80
2022-12-16T17:12:17.911Z,-4.80
2022-12-16T17:15:03.816Z,-4.80
2022-12-16T17:17:49.736Z,-4.80
2022-12-16T17:20:37.672Z,-4.80
2022-12-16T17:23:23.972Z,-4.80
2022-12-16T17:26:10.169Z,-4.80
2022-12-16T17:28:56.065Z,-4.80
2022-12-16T17:31:42.074Z,-4.80
2022-12-16T17:34:28.323Z,-4.80
2022-12-16T17:37:24.553Z,-4.80
2022-12-16T17:40:13.086Z,-4.80
2022-12-16T17:42:58.959Z,-4.80
2022-12-16T17:45:44.889Z,-4.80
2022-12-16T17:48:30.858Z,-4.80
2022-12-16T17:51:16.695Z,-4.80
2022-12-16T17:54:12.139Z,-4.70
2022-12-16T17:57:02.027Z,-4.70
2022-12-16T17:59:51.771Z,-4.70
2022-12-16T18:02:40.936Z,-4.70
2022-12-16T18:05:34.717Z,-4.70
2022-12-16T18:08:24.137Z,-4.70
2022-12-16T18:11:13.107Z,-4.70
2022-12-16T18:13:58.876Z,-4.70
2022-12-16T18:16:44.904Z,-4.70
2022-12-16T18:19:36.752Z,-4.70
2022-12-16T18:22:38.302Z,-4.70
2022-12-16T18:25:24.674Z,-4.80
2022-12-16T18:28:11.905Z,-4.70
2022-12-16T18:30:58.480Z,-4.80
2022-12-16T18:33:44.549Z,-4.70
2022-12-16T18:36:30.680Z,-4.70
2022-12-16T18:39:19.907Z,-4.80
2022-12-16T18:42:06.682Z,-4.80
2022-12-16T18:45:00.605Z,-4.80
2022-12-16T18:47:47.387Z,-4.80
2022-12-16T18:50:37.848Z,-4.80
2022-12-16T18:53:25.138Z,-4.70
2022-12-16T18:56:18.737Z,-4.70
2022-12-16T18:59:05.013Z,-4.70
2022-12-16T19:01:52.725Z,-4.70
2022-12-16T19:04:41.299Z,-4.80
2022-12-16T19:07:33.422Z,-4.80
2022-12-16T19:10:19.992Z,-4.70
2022-12-16T19:13:06.113Z,-4.80
2022-12-16T19:15:52.691Z,-4.80
2022-12-16T19:18:40.458Z,-4.80
2022-12-16T19:21:29.930Z,-4.80
2022-12-16T19:24:16.242Z,-4.80
2022-12-16T19:27:03.396Z,-4.80
2022-12-16T19:29:49.694Z,-4.80
2022-12-16T19:32:35.961Z,-4.80
2022-12-16T19:35:24.109Z,-4.80
2022-12-16T19:38:12.876Z,-4.70
2022-12-16T19:41:01.810Z,-4.70
2022-12-16T19:43:47.920Z,-4.70
2022-12-16T19:46:34.194Z,-4.70
2022-12-16T19:49:20.591Z,-4.70
2022-12-16T19:52:08.368Z,-4.70
2022-12-16T19:54:56.364Z,-4.70
2022-12-16T19:57:42.742Z,-4.70
2022-12-16T20:00:29.708Z,-4.70
2022-12-16T20:03:16.098Z,-4.70
2022-12-16T20:06:02.319Z,-4.70
2022-12-16T20:08:50.157Z,-4.70
2022-12-16T20:11:36.376Z,-4.70
2022-12-16T20:14:22.704Z,-4.70
2022-12-16T20:17:08.721Z,-4.70
2022-12-16T20:23:01.632Z,-4.70
2022-12-16T20:25:49.286Z,-4.70
2022-12-16T20:28:35.328Z,-4.70
2022-12-16T20:31:21.907Z,-4.70
2022-12-16T20:34:12.674Z,-4.60
2022-12-16T20:36:58.520Z,-4.70
2022-12-16T20:39:56.893Z,-4.70
2022-12-16T20:42:49.622Z,-4.70
2022-12-16T20:45:36.233Z,-4.70
2022-12-16T20:48:22.843Z,-4.70
2022-12-16T20:51:13.419Z,-4.70
2022-12-16T20:54:00.214Z,-4.70
2022-12-16T20:56:47.080Z,-4.70
2022-12-16T20:59:34.403Z,-4.70
2022-12-16T21:02:23.453Z,-4.70
2022-12-16T21:05:14.870Z,-4.70
2022-12-16T21:08:01.068Z,-4.70
2022-12-16T21:10:47.213Z,-4.60
2022-12-16T21:13:35.098Z,-4.70
2022-12-16T21:16:25.191Z,-4.70
2022-12-16T21:19:11.926Z,-4.60
2022-12-16T21:21:57.707Z,-4.60
2022-12-16T21:24:58.686Z,-4.60
2022-12-16T21:27:44.782Z,-4.60
2022-12-16T21:30:31.074Z,-4.60
2022-12-16T21:33:18.531Z,-4.60
2022-12-16T21:36:10.569Z,-4.50
2022-12-16T21:38:57.902Z,-4.50
2022-12-16T21:41:46.910Z,-4.50
2022-12-16T21:44:32.564Z,-4.50
2022-12-16T21:47:19.007Z,-4.50
2022-12-16T21:50:06.464Z,-4.50
2022-12-16T21:52:55.313Z,-4.60
2022-12-16T21:55:42.707Z,-4.50
2022-12-16T21:58:26.241Z,-4.60
2022-12-16T22:01:17.676Z,-4.60
2022-12-16T22:04:03.933Z,-4.60
2022-12-16T22:06:51.694Z,-4.60
2022-12-16T22:09:37.565Z,-4.60
2022-12-16T22:12:24.316Z,-4.50
2022-12-16T22:15:10.728Z,-4.40
2022-12-16T22:17:58.593Z,-4.40
2022-12-16T22:21:03.270Z,-4.40
2022-12-16T22:23:51.053Z,-4.40
2022-12-16T22:26:37.895Z,-4.40
2022-12-16T22:29:23.870Z,-4.40
2022-12-16T22:32:12.425Z,-4.40
2022-12-16T22:34:58.143Z,-4.30
2022-12-16T22:37:44.415Z,-4.30
2022-12-16T22:40:31.895Z,-3.80
2022-12-16T22:46:18.859Z,-4.10
2022-12-16T22:49:07.701Z,-4.20
2022-12-16T22:51:55.784Z,-4.30
